createdAt,value
2023-02-02T00:02:12.562Z,4.80
2023-02-02T00:04:40.865Z,4.60
2023-02-02T00:07:09.777Z,6.80
2023-02-02T00:09:38.240Z,5.50
2023-02-02T00:12:07.295Z,3.30
2023-02-02T00:14:38.582Z,5.60
2023-02-02T00:17:10.483Z,3.90
2023-02-02T00:19:38.876Z,6.80
2023-02-02T00:22:07.457Z,5.30
2023-02-02T00:24:35.849Z,5.10
2023-02-02T00:27:04.644Z,6.40
2023-02-02T00:29:34.396Z,6.20
2023-02-02T00:32:02.807Z,3.90
2023-02-02T00:34:31.179Z,6.20
2023-02-02T00:36:59.835Z,4.50
2023-02-02T00:39:29.066Z,4.30
2023-02-02T00:41:57.499Z,5.10
2023-02-02T00:44:44.413Z,6.00
2023-02-02T00:47:13.231Z,5.60
2023-02-02T00:49:41.717Z,5.30
2023-02-02T00:52:10.667Z,5.00
2023-02-02T00:54:39.239Z,5.70
2023-02-02T00:57:09.039Z,4.70
2023-02-02T00:59:37.446Z,5.90
2023-02-02T01:02:05.957Z,5.10
2023-02-02T01:04:34.396Z,3.60
2023-02-02T01:07:02.925Z,6.10
2023-02-02T01:09:31.416Z,4.40
2023-02-02T01:11:59.818Z,4.70
2023-02-02T01:14:28.520Z,4.90
2023-02-02T01:16:56.956Z,4.80
2023-02-02T01:19:25.453Z,4.60
2023-02-02T01:21:53.920Z,5.10
2023-02-02T01:24:22.278Z,5.50
2023-02-02T01:26:50.999Z,2.70
2023-02-02T01:29:19.815Z,2.90
2023-02-02T01:31:48.501Z,3.70
2023-02-02T01:34:17.114Z,5.00
2023-02-02T01:36:45.834Z,5.70
2023-02-02T01:39:14.525Z,4.40
2023-02-02T01:41:43.016Z,5.30
2023-02-02T01:44:47.739Z,5.10
2023-02-02T01:47:16.544Z,4.30
2023-02-02T01:49:45.171Z,5.00
2023-02-02T01:52:14.837Z,3.80
2023-02-02T01:54:46.384Z,4.50
2023-02-02T01:57:20.199Z,3.80
2023-02-02T01:59:48.842Z,4.60
2023-02-02T02:02:17.976Z,3.90
2023-02-02T02:04:46.654Z,5.50
2023-02-02T02:07:15.088Z,2.90
2023-02-02T02:09:43.495Z,4.40
2023-02-02T02:12:14.877Z,4.10
2023-02-02T02:15:06.638Z,5.30
2023-02-02T02:17:46.552Z,5.40
2023-02-02T02:20:57.769Z,3.40
2023-02-02T02:24:23.429Z,3.50
2023-02-02T02:30:02.717Z,2.90
2023-02-02T02:32:37.619Z,3.30
2023-02-02T02:35:12.221Z,3.30
2023-02-02T02:37:47.214Z,4.00
2023-02-02T02:40:22.186Z,4.20
2023-02-02T02:42:54.927Z,2.70
2023-02-02T02:45:24.774Z,5.90
2023-02-02T02:47:54.372Z,3.80
2023-02-02T02:50:23.427Z,4.10
2023-02-02T02:52:59.012Z,3.70
2023-02-02T02:55:32.621Z,3.40
2023-02-02T02:58:06.716Z,3.00
2023-02-02T03:03:16.100Z,1.90
2023-02-02T03:05:51.159Z,2.00
2023-02-02T03:08:24.254Z,2.50
2023-02-02T03:10:53.598Z,3.80
2023-02-02T03:13:22.094Z,4.30
2023-02-02T03:15:50.488Z,3.70
2023-02-02T03:18:20.371Z,4.90
2023-02-02T03:20:49.104Z,3.50
2023-02-02T03:23:17.805Z,5.40
2023-02-02T03:25:46.670Z,7.50
2023-02-02T03:28:15.314Z,5.50
2023-02-02T03:30:44.440Z,5.20
2023-02-02T03:33:16.076Z,5.10
2023-02-02T03:35:46.780Z,7.20
2023-02-02T03:38:15.159Z,6.20
2023-02-02T03:40:43.577Z,7.50
2023-02-02T03:43:12.136Z,5.10
2023-02-02T03:45:40.499Z,4.30
2023-02-02T03:48:09.010Z,5.50
2023-02-02T03:50:37.716Z,4.60
2023-02-02T03:53:06.107Z,4.50
2023-02-02T03:55:34.852Z,5.90
2023-02-02T03:58:03.568Z,5.30
2023-02-02T04:00:32.076Z,5.80
2023-02-02T04:03:00.453Z,4.60
2023-02-02T04:05:29.249Z,3.80
2023-02-02T04:07:57.585Z,2.70
2023-02-02T04:10:26.066Z,4.90
2023-02-02T04:12:54.516Z,3.50
2023-02-02T04:15:23.397Z,3.80
2023-02-02T04:17:52.001Z,2.60
2023-02-02T04:20:20.550Z,4.70
2023-02-02T04:22:50.104Z,3.00
2023-02-02T04:25:18.601Z,5.70
2023-02-02T04:27:48.388Z,2.50
2023-02-02T04:30:19.320Z,3.50
2023-02-02T04:32:47.746Z,4.50
2023-02-02T04:35:16.474Z,3.10
2023-02-02T04:37:45.021Z,4.70
2023-02-02T04:40:15.132Z,4.40
2023-02-02T04:42:44.830Z,3.00
2023-02-02T04:45:13.456Z,3.40
2023-02-02T04:47:41.806Z,4.00
2023-02-02T04:50:11.929Z,3.20
2023-02-02T04:52:40.586Z,3.70
2023-02-02T04:55:10.475Z,4.30
2023-02-02T04:57:38.975Z,5.00
2023-02-02T05:00:10.763Z,2.60
2023-02-02T05:02:40.293Z,2.60
2023-02-02T05:05:12.814Z,3.00
2023-02-02T05:07:41.502Z,3.10
2023-02-02T05:10:12.127Z,4.70
2023-02-02T05:12:40.459Z,3.90
2023-02-02T05:15:11.262Z,2.30
2023-02-02T05:17:39.637Z,2.60
2023-02-02T05:20:10.429Z,2.30
2023-02-02T05:22:39.288Z,2.90
2023-02-02T05:25:09.380Z,1.20
2023-02-02T05:27:37.731Z,2.40
2023-02-02T05:30:09.016Z,2.00
2023-02-02T05:32:37.393Z,1.70
2023-02-02T05:35:08.991Z,2.10
2023-02-02T05:37:37.369Z,2.10
2023-02-02T05:40:07.609Z,2.70
2023-02-02T05:42:36.186Z,2.20
2023-02-02T05:45:05.834Z,2.30
2023-02-02T05:47:35.105Z,3.00
2023-02-02T05:50:03.925Z,2.50
2023-02-02T05:52:33.869Z,2.00
2023-02-02T05:55:05.587Z,2.40
2023-02-02T05:57:34.365Z,1.40
2023-02-02T06:00:04.507Z,2.50
2023-02-02T06:02:32.903Z,2.50
2023-02-02T06:05:02.942Z,3.00
2023-02-02T06:07:31.391Z,2.80
2023-02-02T06:09:59.815Z,2.20
2023-02-02T06:12:28.310Z,2.30
2023-02-02T06:14:56.685Z,1.90
2023-02-02T06:17:25.127Z,2.60
2023-02-02T06:19:53.523Z,3.20
2023-02-02T06:22:21.863Z,1.50
2023-02-02T06:24:52.787Z,1.80
2023-02-02T06:27:21.239Z,3.50
2023-02-02T06:29:49.600Z,3.20
2023-02-02T06:32:18.017Z,1.70
2023-02-02T06:34:46.446Z,2.00
2023-02-02T06:37:14.796Z,2.90
2023-02-02T06:39:43.294Z,1.90
2023-02-02T06:42:20.779Z,3.00
2023-02-02T06:44:50.404Z,2.70
2023-02-02T06:47:18.812Z,2.30
2023-02-02T06:49:47.206Z,2.90
2023-02-02T06:52:16.140Z,2.90
2023-02-02T06:54:44.589Z,2.70
2023-02-02T06:57:12.970Z,2.40
2023-02-02T06:59:41.405Z,2.20
2023-02-02T07:02:12.599Z,2.10
2023-02-02T07:04:40.932Z,2.40
2023-02-02T07:07:09.321Z,4.40
2023-02-02T07:09:37.907Z,2.20
2023-02-02T07:12:06.996Z,3.20
2023-02-02T07:14:37.677Z,3.40
2023-02-02T07:17:06.116Z,2.90
2023-02-02T07:19:34.478Z,3.00
2023-02-02T07:22:03.371Z,2.50
2023-02-02T07:24:32.553Z,3.70
2023-02-02T07:27:01.327Z,3.80
2023-02-02T07:29:29.959Z,2.80
2023-02-02T07:31:58.664Z,3.30
2023-02-02T07:34:27.179Z,3.50
2023-02-02T07:36:55.710Z,3.30
2023-02-02T07:39:24.173Z,3.30
2023-02-02T07:41:52.627Z,3.20
2023-02-02T07:44:21.195Z,3.20
2023-02-02T07:46:49.815Z,3.10
2023-02-02T07:49:19.725Z,3.70
2023-02-02T07:51:50.142Z,2.90
2023-02-02T07:54:18.583Z,3.20
2023-02-02T07:56:46.962Z,3.30
2023-02-02T07:59:15.816Z,4.60
2023-02-02T08:01:44.284Z,5.50
2023-02-02T08:04:12.674Z,4.20
2023-02-02T08:06:41.218Z,3.30
2023-02-02T08:09:10.310Z,3.80
2023-02-02T08:11:39.180Z,4.30
2023-02-02T08:14:08.021Z,3.60
2023-02-02T08:16:36.748Z,3.30
2023-02-02T08:19:05.236Z,3.70
2023-02-02T08:21:34.225Z,3.60
2023-02-02T08:24:03.919Z,3.60
2023-02-02T08:26:32.624Z,3.20
2023-02-02T08:29:03.666Z,3.50
2023-02-02T08:31:34.173Z,3.70
2023-02-02T08:34:04.059Z,4.20
2023-02-02T08:36:34.807Z,3.30
2023-02-02T08:39:05.677Z,2.70
2023-02-02T08:41:36.266Z,4.10
2023-02-02T08:44:06.811Z,2.00
2023-02-02T08:46:35.501Z,2.50
2023-02-02T08:49:04.353Z,3.00
2023-02-02T08:51:32.712Z,2.30
2023-02-02T08:54:02.787Z,2.30
2023-02-02T08:56:31.943Z,1.80
2023-02-02T08:59:02.534Z,1.90
2023-02-02T09:01:33.119Z,1.20
2023-02-02T09:04:03.945Z,2.10
2023-02-02T09:06:34.209Z,2.50
2023-02-02T09:09:04.347Z,2.00
2023-02-02T09:11:36.162Z,2.20
2023-02-02T09:14:05.875Z,2.00
2023-02-02T09:16:35.524Z,2.60
2023-02-02T09:19:04.776Z,2.60
2023-02-02T09:21:36.141Z,2.70
2023-02-02T09:24:09.072Z,1.20
2023-02-02T09:26:39.849Z,2.60
2023-02-02T09:29:11.218Z,2.20
2023-02-02T09:31:40.332Z,2.60
2023-02-02T09:34:10.872Z,2.10
2023-02-02T09:36:39.939Z,1.90
2023-02-02T09:39:08.333Z,2.70
2023-02-02T09:42:05.427Z,2.50
2023-02-02T09:44:52.705Z,3.10
2023-02-02T09:47:25.507Z,3.20
2023-02-02T09:49:59.007Z,3.60
2023-02-02T09:52:29.869Z,2.70
2023-02-02T09:55:02.761Z,3.10
2023-02-02T09:57:36.993Z,3.50
2023-02-02T10:00:24.814Z,3.90
2023-02-02T10:02:55.208Z,2.20
2023-02-02T10:05:28.242Z,3.80
2023-02-02T10:08:00.507Z,3.20
2023-02-02T10:10:32.350Z,3.20
2023-02-02T10:13:06.381Z,3.20
2023-02-02T10:15:37.329Z,3.70
2023-02-02T10:18:11.733Z,4.00
2023-02-02T10:20:45.333Z,4.30
2023-02-02T10:23:22.876Z,3.80
2023-02-02T10:25:57.109Z,3.70
2023-02-02T10:28:41.239Z,4.60
2023-02-02T10:33:40.622Z,2.80
2023-02-02T10:36:16.291Z,2.50
2023-02-02T10:38:48.246Z,3.60
2023-02-02T10:41:23.627Z,2.30
2023-02-02T10:44:05.838Z,3.00
2023-02-02T10:46:38.248Z,2.40
2023-02-02T10:49:16.824Z,2.90
2023-02-02T10:51:51.055Z,3.80
2023-02-02T10:54:56.034Z,4.70
2023-02-02T10:57:37.344Z,3.00
2023-02-02T11:00:14.850Z,2.40
2023-02-02T11:02:43.315Z,2.00
2023-02-02T11:05:39.877Z,1.70
2023-02-02T11:08:16.965Z,2.30
2023-02-02T11:10:47.197Z,2.10
2023-02-02T11:13:21.390Z,3.50
2023-02-02T11:15:50.879Z,2.10
2023-02-02T11:18:30.550Z,2.70
2023-02-02T11:20:59.612Z,4.10
2023-02-02T11:23:28.226Z,2.80
2023-02-02T11:26:02.005Z,2.60
2023-02-02T11:28:34.471Z,3.20
2023-02-02T11:31:03.333Z,2.90
2023-02-02T11:33:32.969Z,2.30
2023-02-02T11:36:02.720Z,2.90
2023-02-02T11:38:31.743Z,2.60
2023-02-02T11:41:03.078Z,3.30
2023-02-02T11:43:34.231Z,2.70
2023-02-02T11:46:04.611Z,2.80
2023-02-02T11:48:36.006Z,2.00
2023-02-02T11:51:06.361Z,3.20
2023-02-02T11:53:37.062Z,4.00
2023-02-02T11:56:08.825Z,4.20
2023-02-02T11:58:47.637Z,3.20
2023-02-02T12:01:25.312Z,5.10
2023-02-02T12:03:55.015Z,3.70
2023-02-02T12:06:25.039Z,3.60
2023-02-02T12:08:57.318Z,5.70
2023-02-02T12:11:35.971Z,5.80
2023-02-02T12:14:15.740Z,4.80
2023-02-02T12:16:53.233Z,4.90
2023-02-02T12:19:38.011Z,6.00
2023-02-02T12:22:17.091Z,5.10
2023-02-02T12:24:51.101Z,4.50
2023-02-02T12:27:30.645Z,6.40
2023-02-02T12:30:10.262Z,5.60
2023-02-02T12:32:57.539Z,5.80
2023-02-02T12:35:37.454Z,8.10
2023-02-02T12:38:13.003Z,5.20
2023-02-02T12:40:51.999Z,5.60
2023-02-02T12:43:27.307Z,5.90
2023-02-02T12:46:11.842Z,6.40
2023-02-02T12:48:47.842Z,5.00
2023-02-02T12:51:37.163Z,5.80
2023-02-02T12:54:33.891Z,5.80
2023-02-02T12:57:11.532Z,4.00
2023-02-02T12:59:58.358Z,3.90
2023-02-02T13:02:32.892Z,3.70
2023-02-02T13:05:12.816Z,4.20
2023-02-02T13:07:44.261Z,2.40
2023-02-02T13:10:24.154Z,5.40
2023-02-02T13:12:55.287Z,4.60
2023-02-02T13:15:29.048Z,4.00
2023-02-02T13:17:59.539Z,4.70
2023-02-02T13:20:38.116Z,3.50
2023-02-02T13:23:11.275Z,3.90
2023-02-02T13:25:45.944Z,2.70
2023-02-02T13:28:19.881Z,3.00
2023-02-02T13:33:20.300Z,3.50
2023-02-02T13:35:53.794Z,2.20
2023-02-02T13:38:24.267Z,2.70
2023-02-02T13:40:55.449Z,2.20
2023-02-02T13:43:32.710Z,3.90
2023-02-02T13:46:09.617Z,2.30
2023-02-02T13:48:45.446Z,2.30
2023-02-02T13:51:37.388Z,1.80
2023-02-02T13:54:21.657Z,2.50
2023-02-02T13:59:50.701Z,2.60
2023-02-02T14:02:25.521Z,2.00
2023-02-02T14:04:56.651Z,1.40
2023-02-02T14:07:30.974Z,2.00
2023-02-02T14:09:59.805Z,2.10
2023-02-02T14:12:33.465Z,2.30
2023-02-02T14:15:02.398Z,2.20
2023-02-02T14:17:50.660Z,2.00
2023-02-02T14:20:54.592Z,2.50
2023-02-02T14:23:57.720Z,2.50
2023-02-02T14:26:42.501Z,2.60
2023-02-02T14:29:41.315Z,1.50
2023-02-02T14:32:34.149Z,2.30
2023-02-02T14:35:41.000Z,2.80
2023-02-02T14:38:14.052Z,2.70
2023-02-02T14:40:51.201Z,2.50
2023-02-02T14:43:45.593Z,1.80
2023-02-02T14:46:34.469Z,2.00
2023-02-02T14:49:20.831Z,2.60
2023-02-02T14:51:55.134Z,1.70
2023-02-02T14:54:28.898Z,2.70
2023-02-02T14:57:02.837Z,1.90
2023-02-02T14:59:34.595Z,3.50
2023-02-02T15:02:16.944Z,3.00
2023-02-02T15:04:47.422Z,2.70
2023-02-02T15:07:38.811Z,3.30
2023-02-02T15:10:09.999Z,2.70
2023-02-02T15:12:40.961Z,2.90
2023-02-02T15:15:20.442Z,1.70
2023-02-02T15:18:01.192Z,1.30
2023-02-02T15:20:32.335Z,2.40
2023-02-02T15:23:05.869Z,1.80
2023-02-02T15:25:40.768Z,2.20
2023-02-02T15:28:20.341Z,2.30
2023-02-02T15:30:53.304Z,2.90
2023-02-02T15:33:27.182Z,2.60
2023-02-02T15:35:58.081Z,1.70
2023-02-02T15:38:33.282Z,1.50
2023-02-02T15:41:05.967Z,1.20
2023-02-02T15:43:35.641Z,1.00
2023-02-02T15:46:09.637Z,1.60
2023-02-02T15:48:38.361Z,0.90
2023-02-02T15:51:14.157Z,1.30
2023-02-02T15:53:49.277Z,1.80
2023-02-02T15:56:29.235Z,1.10
2023-02-02T15:58:59.300Z,1.00
2023-02-02T16:01:31.593Z,0.70
2023-02-02T16:04:06.129Z,1.00
2023-02-02T16:06:36.947Z,0.80
2023-02-02T16:09:05.712Z,1.10
2023-02-02T16:11:34.887Z,1.10
2023-02-02T16:14:05.344Z,1.00
2023-02-02T16:16:38.908Z,1.50
2023-02-02T16:19:14.420Z,1.40
2023-02-02T16:21:48.101Z,0.90
2023-02-02T16:24:20.631Z,1.00
2023-02-02T16:26:49.789Z,1.00
2023-02-02T16:29:20.816Z,0.80
2023-02-02T16:31:50.771Z,1.50
2023-02-02T16:34:40.073Z,1.30
2023-02-02T16:37:14.245Z,1.40
2023-02-02T16:39:42.800Z,1.30
2023-02-02T16:42:12.157Z,1.70
2023-02-02T16:44:44.371Z,1.20
2023-02-02T16:47:34.310Z,1.10
2023-02-02T16:50:26.311Z,1.40
2023-02-02T16:52:57.666Z,0.80
2023-02-02T16:55:39.830Z,1.50
2023-02-02T16:58:20.484Z,0.90
2023-02-02T17:01:12.735Z,0.80
2023-02-02T17:03:49.311Z,1.20
2023-02-02T17:06:19.372Z,1.20
2023-02-02T17:08:53.530Z,1.30
2023-02-02T17:11:25.031Z,0.90
2023-02-02T17:13:54.633Z,0.90
2023-02-02T17:16:24.872Z,1.10
2023-02-02T17:18:56.641Z,1.20
2023-02-02T17:21:26.158Z,1.20
2023-02-02T17:23:55.719Z,1.50
2023-02-02T17:26:27.314Z,1.30
2023-02-02T17:28:56.586Z,1.40
2023-02-02T17:31:26.581Z,1.70
2023-02-02T17:33:55.294Z,1.70
2023-02-02T17:36:24.511Z,2.20
2023-02-02T17:38:53.431Z,0.90
2023-02-02T17:41:22.197Z,1.90
2023-02-02T17:43:51.227Z,2.90
2023-02-02T17:46:19.961Z,2.00
2023-02-02T17:48:48.818Z,1.70
2023-02-02T17:51:17.982Z,1.70
2023-02-02T17:53:46.476Z,2.00
2023-02-02T17:56:15.129Z,2.20
2023-02-02T17:58:43.936Z,2.20
2023-02-02T18:01:12.928Z,2.30
2023-02-02T18:03:44.744Z,2.80
2023-02-02T18:06:13.451Z,2.00
2023-02-02T18:08:41.996Z,1.80
2023-02-02T18:11:12.998Z,3.80
2023-02-02T18:13:42.813Z,3.30
2023-02-02T18:16:12.339Z,2.50
2023-02-02T18:18:41.245Z,1.60
2023-02-02T18:21:11.456Z,1.00
2023-02-02T18:23:40.668Z,1.40
2023-02-02T18:26:14.739Z,2.10
2023-02-02T18:31:13.220Z,2.30
2023-02-02T18:33:41.726Z,1.60
2023-02-02T18:36:14.701Z,1.50
2023-02-02T18:38:44.541Z,1.70
2023-02-02T18:41:14.064Z,2.10
2023-02-02T18:43:43.598Z,3.40
2023-02-02T18:46:14.515Z,2.40
2023-02-02T18:48:44.569Z,2.20
2023-02-02T18:51:15.795Z,2.00
2023-02-02T18:53:44.997Z,2.60
2023-02-02T18:56:14.740Z,3.20
2023-02-02T18:58:43.402Z,3.00
2023-02-02T19:01:14.528Z,2.40
2023-02-02T19:03:46.968Z,1.70
2023-02-02T19:06:33.935Z,2.50
2023-02-02T19:09:02.514Z,2.10
2023-02-02T19:11:36.244Z,2.10
2023-02-02T19:14:10.557Z,2.20
2023-02-02T19:16:39.136Z,2.50
2023-02-02T19:19:16.474Z,1.80
2023-02-02T19:21:45.218Z,1.30
2023-02-02T19:24:14.322Z,2.30
2023-02-02T19:26:46.166Z,1.30
2023-02-02T19:29:18.792Z,2.20
2023-02-02T19:31:53.034Z,1.40
2023-02-02T19:34:23.279Z,1.60
2023-02-02T19:36:52.410Z,2.50
2023-02-02T19:39:24.533Z,2.10
2023-02-02T19:41:56.868Z,2.60
2023-02-02T19:44:29.325Z,1.30
2023-02-02T19:47:02.196Z,2.40
2023-02-02T19:49:33.549Z,2.10
2023-02-02T19:52:04.190Z,1.20
2023-02-02T19:54:41.147Z,2.80
2023-02-02T19:57:20.471Z,1.10
2023-02-02T19:59:51.949Z,1.30
2023-02-02T20:02:38.546Z,1.70
2023-02-02T20:05:18.373Z,2.60
2023-02-02T20:07:47.189Z,3.20
2023-02-02T20:10:21.008Z,2.60
2023-02-02T20:12:50.101Z,1.30
2023-02-02T20:15:30.065Z,2.00
2023-02-02T20:18:01.362Z,1.40
2023-02-02T20:20:35.103Z,1.60
2023-02-02T20:23:08.088Z,1.90
2023-02-02T20:25:37.962Z,2.00
2023-02-02T20:28:15.445Z,2.20
2023-02-02T20:30:44.172Z,3.30
2023-02-02T20:33:21.151Z,1.60
2023-02-02T20:35:49.980Z,1.90
2023-02-02T20:38:22.186Z,1.80
2023-02-02T20:40:52.063Z,2.50
2023-02-02T20:43:21.145Z,2.00
2023-02-02T20:45:49.660Z,2.40
2023-02-02T20:48:18.272Z,1.80
2023-02-02T20:50:47.100Z,1.30
2023-02-02T20:53:15.991Z,2.90
2023-02-02T20:55:46.379Z,2.70
2023-02-02T20:58:15.073Z,1.90
2023-02-02T21:00:43.683Z,1.70
2023-02-02T21:03:13.024Z,1.90
2023-02-02T21:05:41.788Z,2.80
2023-02-02T21:08:14.121Z,2.50
2023-02-02T21:10:42.971Z,1.30
2023-02-02T21:13:11.386Z,2.60
2023-02-02T21:15:41.161Z,2.10
2023-02-02T21:18:10.701Z,3.50
2023-02-02T21:20:39.198Z,2.50
2023-02-02T21:23:09.649Z,3.10
2023-02-02T21:25:38.234Z,3.50
2023-02-02T21:28:06.785Z,2.50
2023-02-02T21:30:36.089Z,2.90
2023-02-02T21:33:05.697Z,2.60
2023-02-02T21:35:34.906Z,2.00
2023-02-02T21:38:10.299Z,2.20
2023-02-02T21:40:39.478Z,3.60
2023-02-02T21:43:14.771Z,4.30
2023-02-02T21:45:44.252Z,2.60
2023-02-02T21:48:27.557Z,3.30
2023-02-02T21:51:23.287Z,2.90
2023-02-02T21:53:52.370Z,2.90
2023-02-02T21:56:28.232Z,2.20
2023-02-02T21:58:58.846Z,2.30
2023-02-02T22:01:33.491Z,2.20
2023-02-02T22:04:02.353Z,3.30
2023-02-02T22:06:33.633Z,3.60
2023-02-02T22:09:12.317Z,1.80
2023-02-02T22:11:45.835Z,2.70
2023-02-02T22:14:18.747Z,2.50
2023-02-02T22:16:51.384Z,1.90
2023-02-02T22:19:38.484Z,2.90
2023-02-02T22:22:21.364Z,4.20
2023-02-02T22:24:59.776Z,2.80
2023-02-02T22:27:40.947Z,4.50
2023-02-02T22:30:17.456Z,2.50
2023-02-02T22:32:46.016Z,4.60
2023-02-02T22:35:14.794Z,4.10
2023-02-02T22:37:43.282Z,4.20
2023-02-02T22:40:13.931Z,2.80
2023-02-02T22:42:42.723Z,4.90
2023-02-02T22:45:11.751Z,2.30
2023-02-02T22:47:40.178Z,3.20
2023-02-02T22:50:09.748Z,2.20
2023-02-02T22:52:38.170Z,2.80
2023-02-02T22:55:07.733Z,2.60
2023-02-02T22:57:36.489Z,2.30
2023-02-02T23:00:12.127Z,3.70
2023-02-02T23:02:41.562Z,3.90
2023-02-02T23:05:12.137Z,2.80
2023-02-02T23:07:43.396Z,3.50
2023-02-02T23:10:13.570Z,2.70
2023-02-02T23:12:43.194Z,2.30
2023-02-02T23:15:15.224Z,3.90
2023-02-02T23:17:45.085Z,1.70
2023-02-02T23:20:15.218Z,2.60
2023-02-02T23:22:43.768Z,2.90
2023-02-02T23:25:12.473Z,1.60
2023-02-02T23:27:41.849Z,1.90
2023-02-02T23:30:12.868Z,3.90
2023-02-02T23:32:41.763Z,3.70
2023-02-02T23:35:11.205Z,2.70
2023-02-02T23:37:40.611Z,3.30
2023-02-02T23:40:11.811Z,3.70
2023-02-02T23:42:40.191Z,1.40
2023-02-02T23:45:10.127Z,1.90
2023-02-02T23:47:38.990Z,3.50
2023-02-02T23:50:10.682Z,4.00
2023-02-02T23:52:39.294Z,2.70
2023-02-02T23:55:12.771Z,3.80
2023-02-02T23:57:41.308Z,1.90
